sensor_id;sensor_type;location;lat;lon;timestamp;temperature;humidity
16732;DHT22;8484;50.904;9.192;2023-04-25T00:00:32;5.40;99.90
16732;DHT22;8484;50.904;9.192;2023-04-25T00:02:59;5.40;99.90
16732;DHT22;8484;50.904;9.192;2023-04-25T00:05:26;5.40;99.90
16732;DHT22;8484;50.904;9.192;2023-04-25T00:07:55;5.40;99.90
16732;DHT22;8484;50.904;9.192;2023-04-25T00:10:23;5.40;99.90
16732;DHT22;8484;50.904;9.192;2023-04-25T00:12:50;5.50;99.90
16732;DHT22;8484;50.904;9.192;2023-04-25T00:15:17;5.60;99.90
16732;DHT22;8484;50.904;9.192;2023-04-25T00:17:44;5.80;99.90
16732;DHT22;8484;50.904;9.192;2023-04-25T00:20:12;6.00;99.90
16732;DHT22;8484;50.904;9.192;2023-04-25T00:22:42;6.00;99.90
16732;DHT22;8484;50.904;9.192;2023-04-25T00:25:09;6.10;99.90
16732;DHT22;8484;50.904;9.192;2023-04-25T00:27:37;6.10;99.90
16732;DHT22;8484;50.904;9.192;2023-04-25T00:30:05;6.00;99.90
16732;DHT22;8484;50.904;9.192;2023-04-25T00:32:32;6.00;99.90
16732;DHT22;8484;50.904;9.192;2023-04-25T00:34:59;5.90;99.90
16732;DHT22;8484;50.904;9.192;2023-04-25T00:37:26;5.90;99.90
16732;DHT22;8484;50.904;9.192;2023-04-25T00:39:53;5.80;99.90
16732;DHT22;8484;50.904;9.192;2023-04-25T00:42:21;5.80;99.90
16732;DHT22;8484;50.904;9.192;2023-04-25T00:44:50;5.80;99.90
16732;DHT22;8484;50.904;9.192;2023-04-25T00:47:17;5.70;99.90
16732;DHT22;8484;50.904;9.192;2023-04-25T00:49:44;5.70;99.90
16732;DHT22;8484;50.904;9.192;2023-04-25T00:52:11;5.70;99.90
16732;DHT22;8484;50.904;9.192;2023-04-25T00:54:39;5.60;99.90
16732;DHT22;8484;50.904;9.192;2023-04-25T00:57:06;5.60;99.90
16732;DHT22;8484;50.904;9.192;2023-04-25T00:59:33;5.60;99.90
16732;DHT22;8484;50.904;9.192;2023-04-25T01:02:02;5.50;99.90
16732;DHT22;8484;50.904;9.192;2023-04-25T01:04:29;5.50;99.90
16732;DHT22;8484;50.904;9.192;2023-04-25T01:06:56;5.40;99.90
16732;DHT22;8484;50.904;9.192;2023-04-25T01:09:26;5.30;99.90
16732;DHT22;8484;50.904;9.192;2023-04-25T01:11:54;5.20;99.90
16732;DHT22;8484;50.904;9.192;2023-04-25T01:14:21;5.20;99.90
16732;DHT22;8484;50.904;9.192;2023-04-25T01:16:49;5.20;99.90
16732;DHT22;8484;50.904;9.192;2023-04-25T01:19:19;5.10;99.90
16732;DHT22;8484;50.904;9.192;2023-04-25T01:21:48;5.00;99.90
16732;DHT22;8484;50.904;9.192;2023-04-25T01:24:15;5.20;99.90
16732;DHT22;8484;50.904;9.192;2023-04-25T01:26:42;5.20;99.90
16732;DHT22;8484;50.904;9.192;2023-04-25T01:29:15;5.20;99.90
16732;DHT22;8484;50.904;9.192;2023-04-25T01:31:42;5.20;99.90
16732;DHT22;8484;50.904;9.192;2023-04-25T01:34:09;5.20;99.90
16732;DHT22;8484;50.904;9.192;2023-04-25T01:36:36;5.20;99.90
16732;DHT22;8484;50.904;9.192;2023-04-25T01:39:05;5.30;99.90
16732;DHT22;8484;50.904;9.192;2023-04-25T01:41:32;5.40;99.90
16732;DHT22;8484;50.904;9.192;2023-04-25T01:44:01;5.50;99.90
16732;DHT22;8484;50.904;9.192;2023-04-25T01:46:30;5.40;99.90
16732;DHT22;8484;50.904;9.192;2023-04-25T01:48:57;5.40;99.90
16732;DHT22;8484;50.904;9.192;2023-04-25T01:51:25;5.30;99.90
16732;DHT22;8484;50.904;9.192;2023-04-25T01:53:52;5.30;99.90
16732;DHT22;8484;50.904;9.192;2023-04-25T01:56:21;5.30;99.90
16732;DHT22;8484;50.904;9.192;2023-04-25T01:58:48;5.30;99.90
16732;DHT22;8484;50.904;9.192;2023-04-25T02:01:15;5.30;99.90
16732;DHT22;8484;50.904;9.192;2023-04-25T02:03:42;5.40;99.90
16732;DHT22;8484;50.904;9.192;2023-04-25T02:06:09;5.30;99.90
16732;DHT22;8484;50.904;9.192;2023-04-25T02:08:36;5.30;99.90
16732;DHT22;8484;50.904;9.192;2023-04-25T02:11:03;5.10;99.90
16732;DHT22;8484;50.904;9.192;2023-04-25T02:13:32;5.10;99.90
16732;DHT22;8484;50.904;9.192;2023-04-25T02:15:58;5.10;99.90
16732;DHT22;8484;50.904;9.192;2023-04-25T02:18:25;5.00;99.90
16732;DHT22;8484;50.904;9.192;2023-04-25T02:20:52;5.00;99.90
16732;DHT22;8484;50.904;9.192;2023-04-25T02:23:19;4.90;99.90
16732;DHT22;8484;50.904;9.192;2023-04-25T02:25:46;4.80;99.90
16732;DHT22;8484;50.904;9.192;2023-04-25T02:28:13;4.60;99.90
16732;DHT22;8484;50.904;9.192;2023-04-25T02:30:41;4.70;99.90
16732;DHT22;8484;50.904;9.192;2023-04-25T02:33:09;4.60;99.90
16732;DHT22;8484;50.904;9.192;2023-04-25T02:35:36;4.40;99.90
16732;DHT22;8484;50.904;9.192;2023-04-25T02:38:02;4.40;99.90
16732;DHT22;8484;50.904;9.192;2023-04-25T02:40:30;4.50;99.90
16732;DHT22;8484;50.904;9.192;2023-04-25T02:42:57;4.40;99.90
16732;DHT22;8484;50.904;9.192;2023-04-25T02:45:23;4.30;99.90
16732;DHT22;8484;50.904;9.192;2023-04-25T02:47:52;4.30;99.90
16732;DHT22;8484;50.904;9.192;2023-04-25T02:50:19;4.20;99.90
16732;DHT22;8484;50.904;9.192;2023-04-25T02:52:46;4.10;99.90
16732;DHT22;8484;50.904;9.192;2023-04-25T02:55:13;4.20;99.90
16732;DHT22;8484;50.904;9.192;2023-04-25T02:57:40;3.90;99.90
16732;DHT22;8484;50.904;9.192;2023-04-25T03:00:08;3.80;99.90
16732;DHT22;8484;50.904;9.192;2023-04-25T03:02:37;3.80;99.90
16732;DHT22;8484;50.904;9.192;2023-04-25T03:05:06;3.90;99.90
16732;DHT22;8484;50.904;9.192;2023-04-25T03:07:33;4.00;99.90
16732;DHT22;8484;50.904;9.192;2023-04-25T03:10:00;4.20;99.90
16732;DHT22;8484;50.904;9.192;2023-04-25T03:12:27;4.20;99.90
16732;DHT22;8484;50.904;9.192;2023-04-25T03:14:53;4.30;99.90
16732;DHT22;8484;50.904;9.192;2023-04-25T03:17:20;4.30;99.90
16732;DHT22;8484;50.904;9.192;2023-04-25T03:19:47;4.40;99.90
16732;DHT22;8484;50.904;9.192;2023-04-25T03:22:16;4.60;99.90
16732;DHT22;8484;50.904;9.192;2023-04-25T03:24:43;4.60;99.90
16732;DHT22;8484;50.904;9.192;2023-04-25T03:27:10;4.80;99.90
16732;DHT22;8484;50.904;9.192;2023-04-25T03:29:37;4.80;99.90
16732;DHT22;8484;50.904;9.192;2023-04-25T03:32:04;4.80;99.90
16732;DHT22;8484;50.904;9.192;2023-04-25T03:34:31;4.70;99.90
16732;DHT22;8484;50.904;9.192;2023-04-25T03:36:58;4.70;99.90
16732;DHT22;8484;50.904;9.192;2023-04-25T03:39:27;4.70;99.90
16732;DHT22;8484;50.904;9.192;2023-04-25T03:41:54;4.70;99.90
16732;DHT22;8484;50.904;9.192;2023-04-25T03:44:21;4.70;99.90
16732;DHT22;8484;50.904;9.192;2023-04-25T03:46:49;4.70;99.90
16732;DHT22;8484;50.904;9.192;2023-04-25T03:49:16;4.70;99.90
16732;DHT22;8484;50.904;9.192;2023-04-25T03:51:43;4.70;99.90
16732;DHT22;8484;50.904;9.192;2023-04-25T03:54:10;4.70;99.90
16732;DHT22;8484;50.904;9.192;2023-04-25T03:56:38;4.70;99.90
16732;DHT22;8484;50.904;9.192;2023-04-25T03:59:05;4.80;99.90
16732;DHT22;8484;50.904;9.192;2023-04-25T04:01:33;4.80;99.90
16732;DHT22;8484;50.904;9.192;2023-04-25T04:04:01;4.90;99.90
16732;DHT22;8484;50.904;9.192;2023-04-25T04:06:30;4.90;99.90
16732;DHT22;8484;50.904;9.192;2023-04-25T04:08:57;4.90;99.90
16732;DHT22;8484;50.904;9.192;2023-04-25T04:11:24;5.00;99.90
16732;DHT22;8484;50.904;9.192;2023-04-25T04:13:52;5.00;99.90
16732;DHT22;8484;50.904;9.192;2023-04-25T04:16:20;4.90;99.90
16732;DHT22;8484;50.904;9.192;2023-04-25T04:18:46;4.70;99.90
16732;DHT22;8484;50.904;9.192;2023-04-25T04:21:13;4.70;99.90
16732;DHT22;8484;50.904;9.192;2023-04-25T04:23:40;4.60;99.90
16732;DHT22;8484;50.904;9.192;2023-04-25T04:26:07;4.60;99.90
16732;DHT22;8484;50.904;9.192;2023-04-25T04:28:34;4.70;99.90
16732;DHT22;8484;50.904;9.192;2023-04-25T04:31:12;4.60;99.90
16732;DHT22;8484;50.904;9.192;2023-04-25T04:33:41;4.70;99.90
16732;DHT22;8484;50.904;9.192;2023-04-25T04:36:07;4.80;99.90
16732;DHT22;8484;50.904;9.192;2023-04-25T04:38:35;4.80;99.90
16732;DHT22;8484;50.904;9.192;2023-04-25T04:41:02;4.90;99.90
16732;DHT22;8484;50.904;9.192;2023-04-25T04:43:29;5.00;99.90
16732;DHT22;8484;50.904;9.192;2023-04-25T04:46:00;5.00;99.90
16732;DHT22;8484;50.904;9.192;2023-04-25T04:48:31;5.00;99.90
16732;DHT22;8484;50.904;9.192;2023-04-25T04:50:59;5.10;99.90
16732;DHT22;8484;50.904;9.192;2023-04-25T04:53:26;5.20;99.90
16732;DHT22;8484;50.904;9.192;2023-04-25T04:55:54;5.30;99.90
16732;DHT22;8484;50.904;9.192;2023-04-25T04:58:21;5.30;99.90
16732;DHT22;8484;50.904;9.192;2023-04-25T05:00:49;5.30;99.90
16732;DHT22;8484;50.904;9.192;2023-04-25T05:03:16;5.40;99.90
16732;DHT22;8484;50.904;9.192;2023-04-25T05:05:44;5.50;99.90
16732;DHT22;8484;50.904;9.192;2023-04-25T05:08:11;5.50;99.90
16732;DHT22;8484;50.904;9.192;2023-04-25T05:10:38;5.70;99.90
16732;DHT22;8484;50.904;9.192;2023-04-25T05:13:06;5.80;99.90
16732;DHT22;8484;50.904;9.192;2023-04-25T05:15:33;5.80;99.90
16732;DHT22;8484;50.904;9.192;2023-04-25T05:18:00;5.80;99.90
16732;DHT22;8484;50.904;9.192;2023-04-25T05:20:27;5.80;99.90
16732;DHT22;8484;50.904;9.192;2023-04-25T05:22:55;5.80;99.90
16732;DHT22;8484;50.904;9.192;2023-04-25T05:25:22;5.90;99.90
16732;DHT22;8484;50.904;9.192;2023-04-25T05:27:50;6.00;99.90
16732;DHT22;8484;50.904;9.192;2023-04-25T05:30:18;6.10;99.90
16732;DHT22;8484;50.904;9.192;2023-04-25T05:32:45;6.10;99.90
16732;DHT22;8484;50.904;9.192;2023-04-25T05:35:12;6.00;99.90
16732;DHT22;8484;50.904;9.192;2023-04-25T05:37:39;5.90;99.90
16732;DHT22;8484;50.904;9.192;2023-04-25T05:40:11;6.00;99.90
16732;DHT22;8484;50.904;9.192;2023-04-25T05:42:38;5.90;99.90
16732;DHT22;8484;50.904;9.192;2023-04-25T05:45:05;6.00;99.90
16732;DHT22;8484;50.904;9.192;2023-04-25T05:47:32;5.90;99.90
16732;DHT22;8484;50.904;9.192;2023-04-25T05:49:59;6.00;99.90
16732;DHT22;8484;50.904;9.192;2023-04-25T05:52:26;6.00;99.90
16732;DHT22;8484;50.904;9.192;2023-04-25T05:54:53;6.10;99.90
16732;DHT22;8484;50.904;9.192;2023-04-25T05:57:23;6.30;99.90
16732;DHT22;8484;50.904;9.192;2023-04-25T05:59:51;6.30;99.90
16732;DHT22;8484;50.904;9.192;2023-04-25T06:02:18;6.30;99.90
16732;DHT22;8484;50.904;9.192;2023-04-25T06:04:45;6.20;99.90
16732;DHT22;8484;50.904;9.192;2023-04-25T06:07:12;6.20;99.90
16732;DHT22;8484;50.904;9.192;2023-04-25T06:09:39;6.20;99.90
16732;DHT22;8484;50.904;9.192;2023-04-25T06:12:07;6.20;99.90
16732;DHT22;8484;50.904;9.192;2023-04-25T06:14:35;6.40;99.90
16732;DHT22;8484;50.904;9.192;2023-04-25T06:17:02;6.30;99.90
16732;DHT22;8484;50.904;9.192;2023-04-25T06:19:32;6.60;99.90
16732;DHT22;8484;50.904;9.192;2023-04-25T06:22:05;6.60;99.90
16732;DHT22;8484;50.904;9.192;2023-04-25T06:24:33;6.70;99.90
16732;DHT22;8484;50.904;9.192;2023-04-25T06:27:00;6.60;99.90
16732;DHT22;8484;50.904;9.192;2023-04-25T06:29:27;6.60;99.90
16732;DHT22;8484;50.904;9.192;2023-04-25T06:31:55;6.60;99.90
16732;DHT22;8484;50.904;9.192;2023-04-25T06:34:22;6.60;99.90
16732;DHT22;8484;50.904;9.192;2023-04-25T06:36:49;6.60;99.90
16732;DHT22;8484;50.904;9.192;2023-04-25T06:39:16;6.70;99.90
16732;DHT22;8484;50.904;9.192;2023-04-25T06:41:43;6.90;99.90
16732;DHT22;8484;50.904;9.192;2023-04-25T06:44:10;6.80;99.90
16732;DHT22;8484;50.904;9.192;2023-04-25T06:46:37;6.70;99.90
16732;DHT22;8484;50.904;9.192;2023-04-25T06:49:06;6.80;99.90
16732;DHT22;8484;50.904;9.192;2023-04-25T06:51:33;6.80;99.90
16732;DHT22;8484;50.904;9.192;2023-04-25T06:54:00;6.90;99.90
16732;DHT22;8484;50.904;9.192;2023-04-25T06:56:27;7.00;99.90
16732;DHT22;8484;50.904;9.192;2023-04-25T06:58:56;7.20;99.90
16732;DHT22;8484;50.904;9.192;2023-04-25T07:01:23;7.10;99.90
16732;DHT22;8484;50.904;9.192;2023-04-25T07:03:50;7.10;99.90
16732;DHT22;8484;50.904;9.192;2023-04-25T07:06:18;7.10;99.90
16732;DHT22;8484;50.904;9.192;2023-04-25T07:08:45;6.90;99.90
16732;DHT22;8484;50.904;9.192;2023-04-25T07:11:12;7.10;99.90
16732;DHT22;8484;50.904;9.192;2023-04-25T07:13:39;7.30;99.90
16732;DHT22;8484;50.904;9.192;2023-04-25T07:16:06;7.10;99.90
16732;DHT22;8484;50.904;9.192;2023-04-25T07:18:33;7.20;99.90
16732;DHT22;8484;50.904;9.192;2023-04-25T07:20:59;7.10;99.90
16732;DHT22;8484;50.904;9.192;2023-04-25T07:23:28;7.20;99.90
16732;DHT22;8484;50.904;9.192;2023-04-25T07:25:55;7.20;99.90
16732;DHT22;8484;50.904;9.192;2023-04-25T07:28:22;7.50;99.90
16732;DHT22;8484;50.904;9.192;2023-04-25T07:30:49;7.50;99.90
16732;DHT22;8484;50.904;9.192;2023-04-25T07:33:16;7.80;99.90
16732;DHT22;8484;50.904;9.192;2023-04-25T07:35:45;7.90;99.90
16732;DHT22;8484;50.904;9.192;2023-04-25T07:38:12;8.40;99.90
16732;DHT22;8484;50.904;9.192;2023-04-25T07:40:40;8.90;99.90
16732;DHT22;8484;50.904;9.192;2023-04-25T07:43:08;9.40;99.90
16732;DHT22;8484;50.904;9.192;2023-04-25T07:45:37;9.50;99.90
16732;DHT22;8484;50.904;9.192;2023-04-25T07:48:04;9.30;99.90
16732;DHT22;8484;50.904;9.192;2023-04-25T07:50:31;9.20;99.90
16732;DHT22;8484;50.904;9.192;2023-04-25T07:52:58;9.20;99.90
16732;DHT22;8484;50.904;9.192;2023-04-25T07:55:25;9.10;99.90
16732;DHT22;8484;50.904;9.192;2023-04-25T07:57:54;9.00;99.90
16732;DHT22;8484;50.904;9.192;2023-04-25T08:00:23;9.10;99.90
16732;DHT22;8484;50.904;9.192;2023-04-25T08:02:50;9.20;99.90
16732;DHT22;8484;50.904;9.192;2023-04-25T08:05:17;9.00;99.90
16732;DHT22;8484;50.904;9.192;2023-04-25T08:07:44;9.10;99.90
16732;DHT22;8484;50.904;9.192;2023-04-25T08:10:11;9.10;99.90
16732;DHT22;8484;50.904;9.192;2023-04-25T08:12:38;9.20;99.90
16732;DHT22;8484;50.904;9.192;2023-04-25T08:15:10;9.10;99.90
16732;DHT22;8484;50.904;9.192;2023-04-25T08:17:39;9.20;99.90
16732;DHT22;8484;50.904;9.192;2023-04-25T08:20:07;9.40;99.90
16732;DHT22;8484;50.904;9.192;2023-04-25T08:22:34;9.60;99.90
16732;DHT22;8484;50.904;9.192;2023-04-25T08:25:01;9.30;99.90
16732;DHT22;8484;50.904;9.192;2023-04-25T08:27:28;9.60;99.90
16732;DHT22;8484;50.904;9.192;2023-04-25T08:29:55;9.70;99.90
16732;DHT22;8484;50.904;9.192;2023-04-25T08:32:24;9.20;99.90
16732;DHT22;8484;50.904;9.192;2023-04-25T08:34:51;8.80;99.90
16732;DHT22;8484;50.904;9.192;2023-04-25T08:37:19;8.50;99.90
16732;DHT22;8484;50.904;9.192;2023-04-25T08:39:46;8.50;99.90
16732;DHT22;8484;50.904;9.192;2023-04-25T08:42:15;8.60;99.90
16732;DHT22;8484;50.904;9.192;2023-04-25T08:44:42;9.00;99.90
16732;DHT22;8484;50.904;9.192;2023-04-25T08:47:09;9.80;99.90
16732;DHT22;8484;50.904;9.192;2023-04-25T08:49:38;9.60;99.90
16732;DHT22;8484;50.904;9.192;2023-04-25T08:52:08;9.10;99.90
16732;DHT22;8484;50.904;9.192;2023-04-25T08:54:37;8.90;99.90
16732;DHT22;8484;50.904;9.192;2023-04-25T08:57:05;8.90;99.90
16732;DHT22;8484;50.904;9.192;2023-04-25T08:59:33;8.90;99.90
16732;DHT22;8484;50.904;9.192;2023-04-25T09:02:00;8.90;99.90
16732;DHT22;8484;50.904;9.192;2023-04-25T09:04:27;9.10;99.90
16732;DHT22;8484;50.904;9.192;2023-04-25T09:06:57;9.10;99.90
16732;DHT22;8484;50.904;9.192;2023-04-25T09:09:25;8.80;99.90
16732;DHT22;8484;50.904;9.192;2023-04-25T09:11:57;8.70;99.90
16732;DHT22;8484;50.904;9.192;2023-04-25T09:14:25;8.70;99.90
16732;DHT22;8484;50.904;9.192;2023-04-25T09:17:04;8.90;99.90
16732;DHT22;8484;50.904;9.192;2023-04-25T09:19:35;8.50;99.90
16732;DHT22;8484;50.904;9.192;2023-04-25T09:22:06;8.70;99.90
16732;DHT22;8484;50.904;9.192;2023-04-25T09:24:35;8.60;99.90
16732;DHT22;8484;50.904;9.192;2023-04-25T09:27:06;8.90;99.90
16732;DHT22;8484;50.904;9.192;2023-04-25T09:29:37;8.50;99.90
16732;DHT22;8484;50.904;9.192;2023-04-25T09:32:17;8.60;99.90
16732;DHT22;8484;50.904;9.192;2023-04-25T09:34:45;8.70;99.90
16732;DHT22;8484;50.904;9.192;2023-04-25T09:37:18;8.80;99.90
16732;DHT22;8484;50.904;9.192;2023-04-25T09:39:46;9.10;99.90
16732;DHT22;8484;50.904;9.192;2023-04-25T09:42:14;9.10;99.90
16732;DHT22;8484;50.904;9.192;2023-04-25T09:44:45;9.60;99.90
16732;DHT22;8484;50.904;9.192;2023-04-25T09:47:14;10.10;99.90
16732;DHT22;8484;50.904;9.192;2023-04-25T09:49:42;9.80;99.90
16732;DHT22;8484;50.904;9.192;2023-04-25T09:52:13;9.30;99.90
16732;DHT22;8484;50.904;9.192;2023-04-25T09:54:41;10.40;99.90
16732;DHT22;8484;50.904;9.192;2023-04-25T09:57:12;11.00;99.90
16732;DHT22;8484;50.904;9.192;2023-04-25T09:59:43;10.40;99.90
16732;DHT22;8484;50.904;9.192;2023-04-25T10:02:11;10.90;99.90
16732;DHT22;8484;50.904;9.192;2023-04-25T10:04:38;11.10;99.90
16732;DHT22;8484;50.904;9.192;2023-04-25T10:07:07;10.80;99.90
16732;DHT22;8484;50.904;9.192;2023-04-25T10:09:37;9.90;99.90
16732;DHT22;8484;50.904;9.192;2023-04-25T10:12:07;9.60;99.90
16732;DHT22;8484;50.904;9.192;2023-04-25T10:14:34;9.10;99.90
16732;DHT22;8484;50.904;9.192;2023-04-25T10:17:02;8.80;99.90
16732;DHT22;8484;50.904;9.192;2023-04-25T10:19:29;9.20;99.90
16732;DHT22;8484;50.904;9.192;2023-04-25T10:22:06;9.00;99.90
16732;DHT22;8484;50.904;9.192;2023-04-25T10:24:35;8.80;99.90
16732;DHT22;8484;50.904;9.192;2023-04-25T10:27:02;9.00;99.90
16732;DHT22;8484;50.904;9.192;2023-04-25T10:29:32;9.10;99.90
16732;DHT22;8484;50.904;9.192;2023-04-25T10:31:59;9.30;99.90
16732;DHT22;8484;50.904;9.192;2023-04-25T10:34:38;9.40;99.90
16732;DHT22;8484;50.904;9.192;2023-04-25T10:37:08;9.60;99.90
16732;DHT22;8484;50.904;9.192;2023-04-25T10:39:41;9.40;99.90
16732;DHT22;8484;50.904;9.192;2023-04-25T10:42:08;9.70;99.90
16732;DHT22;8484;50.904;9.192;2023-04-25T10:44:37;9.30;99.90
16732;DHT22;8484;50.904;9.192;2023-04-25T10:47:06;9.60;99.90
16732;DHT22;8484;50.904;9.192;2023-04-25T10:49:36;9.60;99.90
16732;DHT22;8484;50.904;9.192;2023-04-25T10:52:16;10.20;99.90
16732;DHT22;8484;50.904;9.192;2023-04-25T10:54:46;9.50;99.90
16732;DHT22;8484;50.904;9.192;2023-04-25T10:57:36;9.70;99.90
16732;DHT22;8484;50.904;9.192;2023-04-25T11:00:10;10.50;99.90
16732;DHT22;8484;50.904;9.192;2023-04-25T11:02:41;10.80;99.90
16732;DHT22;8484;50.904;9.192;2023-04-25T11:05:10;12.90;99.90
16732;DHT22;8484;50.904;9.192;2023-04-25T11:07:49;12.20;98.60
16732;DHT22;8484;50.904;9.192;2023-04-25T11:10:17;11.50;99.10
16732;DHT22;8484;50.904;9.192;2023-04-25T11:12:45;10.60;99.80
16732;DHT22;8484;50.904;9.192;2023-04-25T11:15:13;10.10;99.90
16732;DHT22;8484;50.904;9.192;2023-04-25T11:17:40;10.60;99.90
16732;DHT22;8484;50.904;9.192;2023-04-25T11:20:09;10.20;99.10
16732;DHT22;8484;50.904;9.192;2023-04-25T11:22:38;10.30;99.70
16732;DHT22;8484;50.904;9.192;2023-04-25T11:25:07;10.10;99.20
16732;DHT22;8484;50.904;9.192;2023-04-25T11:27:36;10.20;99.90
16732;DHT22;8484;50.904;9.192;2023-04-25T11:30:13;10.20;99.80
16732;DHT22;8484;50.904;9.192;2023-04-25T11:32:41;9.70;99.70
16732;DHT22;8484;50.904;9.192;2023-04-25T11:35:09;10.30;99.90
16732;DHT22;8484;50.904;9.192;2023-04-25T11:37:36;11.80;99.20
16732;DHT22;8484;50.904;9.192;2023-04-25T11:40:04;12.40;98.80
16732;DHT22;8484;50.904;9.192;2023-04-25T11:42:36;12.00;98.10
16732;DHT22;8484;50.904;9.192;2023-04-25T11:45:05;12.00;97.20
16732;DHT22;8484;50.904;9.192;2023-04-25T11:47:33;12.50;98.30
16732;DHT22;8484;50.904;9.192;2023-04-25T11:50:07;13.40;97.00
16732;DHT22;8484;50.904;9.192;2023-04-25T11:52:38;13.70;96.70
16732;DHT22;8484;50.904;9.192;2023-04-25T11:55:07;13.90;95.90
16732;DHT22;8484;50.904;9.192;2023-04-25T11:57:35;12.60;95.00
16732;DHT22;8484;50.904;9.192;2023-04-25T12:00:11;11.10;96.40
16732;DHT22;8484;50.904;9.192;2023-04-25T12:02:44;11.00;97.40
16732;DHT22;8484;50.904;9.192;2023-04-25T12:05:12;11.70;97.40
16732;DHT22;8484;50.904;9.192;2023-04-25T12:07:39;12.00;96.70
16732;DHT22;8484;50.904;9.192;2023-04-25T12:10:09;11.90;97.70
16732;DHT22;8484;50.904;9.192;2023-04-25T12:12:38;11.50;97.10
16732;DHT22;8484;50.904;9.192;2023-04-25T12:15:09;10.80;96.30
16732;DHT22;8484;50.904;9.192;2023-04-25T12:17:36;11.30;97.10
16732;DHT22;8484;50.904;9.192;2023-04-25T12:20:11;11.70;97.10
16732;DHT22;8484;50.904;9.192;2023-04-25T12:22:40;10.70;97.00
16732;DHT22;8484;50.904;9.192;2023-04-25T12:25:10;11.00;97.00
16732;DHT22;8484;50.904;9.192;2023-04-25T12:27:37;11.50;97.60
16732;DHT22;8484;50.904;9.192;2023-04-25T12:30:06;12.30;97.40
16732;DHT22;8484;50.904;9.192;2023-04-25T12:32:37;12.60;96.60
16732;DHT22;8484;50.904;9.192;2023-04-25T12:35:05;12.20;96.30
16732;DHT22;8484;50.904;9.192;2023-04-25T12:37:34;11.60;96.50
16732;DHT22;8484;50.904;9.192;2023-04-25T12:40:00;11.30;97.90
16732;DHT22;8484;50.904;9.192;2023-04-25T12:42:29;11.00;97.60
16732;DHT22;8484;50.904;9.192;2023-04-25T12:44:56;10.80;97.10
16732;DHT22;8484;50.904;9.192;2023-04-25T12:47:23;10.60;97.30
16732;DHT22;8484;50.904;9.192;2023-04-25T12:49:56;10.40;97.40
16732;DHT22;8484;50.904;9.192;2023-04-25T12:52:23;10.20;97.50
16732;DHT22;8484;50.904;9.192;2023-04-25T12:54:51;9.80;97.40
16732;DHT22;8484;50.904;9.192;2023-04-25T12:57:19;9.70;98.20
16732;DHT22;8484;50.904;9.192;2023-04-25T12:59:45;9.60;98.40
16732;DHT22;8484;50.904;9.192;2023-04-25T13:02:12;9.50;98.50
16732;DHT22;8484;50.904;9.192;2023-04-25T13:04:39;9.50;99.00
16732;DHT22;8484;50.904;9.192;2023-04-25T13:07:06;10.00;99.40
16732;DHT22;8484;50.904;9.192;2023-04-25T13:09:33;10.50;98.60
16732;DHT22;8484;50.904;9.192;2023-04-25T13:12:01;10.80;98.40
16732;DHT22;8484;50.904;9.192;2023-04-25T13:14:29;11.20;97.50
16732;DHT22;8484;50.904;9.192;2023-04-25T13:16:56;11.40;97.60
16732;DHT22;8484;50.904;9.192;2023-04-25T13:19:23;11.40;97.10
16732;DHT22;8484;50.904;9.192;2023-04-25T13:21:51;11.10;97.40
16732;DHT22;8484;50.904;9.192;2023-04-25T13:24:18;11.30;97.50
16732;DHT22;8484;50.904;9.192;2023-04-25T13:26:45;11.00;97.50
16732;DHT22;8484;50.904;9.192;2023-04-25T13:29:13;10.40;97.20
16732;DHT22;8484;50.904;9.192;2023-04-25T13:31:39;10.10;97.60
16732;DHT22;8484;50.904;9.192;2023-04-25T13:34:06;10.40;97.80
16732;DHT22;8484;50.904;9.192;2023-04-25T13:36:33;10.50;97.80
16732;DHT22;8484;50.904;9.192;2023-04-25T13:39:00;10.40;95.80
16732;DHT22;8484;50.904;9.192;2023-04-25T13:41:29;10.20;95.70
16732;DHT22;8484;50.904;9.192;2023-04-25T13:43:57;10.30;96.10
16732;DHT22;8484;50.904;9.192;2023-04-25T13:46:25;10.20;95.80
16732;DHT22;8484;50.904;9.192;2023-04-25T13:48:52;10.70;96.30
16732;DHT22;8484;50.904;9.192;2023-04-25T13:51:19;10.60;96.00
16732;DHT22;8484;50.904;9.192;2023-04-25T13:53:46;10.40;96.00
16732;DHT22;8484;50.904;9.192;2023-04-25T13:56:13;10.40;96.90
16732;DHT22;8484;50.904;9.192;2023-04-25T13:58:40;10.60;96.60
16732;DHT22;8484;50.904;9.192;2023-04-25T14:01:07;10.40;96.70
16732;DHT22;8484;50.904;9.192;2023-04-25T14:03:35;10.60;96.20
16732;DHT22;8484;50.904;9.192;2023-04-25T14:06:03;10.30;96.10
16732;DHT22;8484;50.904;9.192;2023-04-25T14:08:30;10.10;95.60
16732;DHT22;8484;50.904;9.192;2023-04-25T14:10:57;10.30;94.90
16732;DHT22;8484;50.904;9.192;2023-04-25T14:13:24;10.60;95.50
16732;DHT22;8484;50.904;9.192;2023-04-25T14:15:51;10.80;95.60
16732;DHT22;8484;50.904;9.192;2023-04-25T14:18:18;11.00;95.50
16732;DHT22;8484;50.904;9.192;2023-04-25T14:20:46;10.50;95.60
16732;DHT22;8484;50.904;9.192;2023-04-25T14:23:13;10.60;95.50
16732;DHT22;8484;50.904;9.192;2023-04-25T14:25:40;11.60;95.50
16732;DHT22;8484;50.904;9.192;2023-04-25T14:28:09;12.00;95.20
16732;DHT22;8484;50.904;9.192;2023-04-25T14:30:36;12.00;95.00
16732;DHT22;8484;50.904;9.192;2023-04-25T14:33:03;12.50;95.10
16732;DHT22;8484;50.904;9.192;2023-04-25T14:35:30;12.40;94.90
16732;DHT22;8484;50.904;9.192;2023-04-25T14:38:01;12.10;95.70
16732;DHT22;8484;50.904;9.192;2023-04-25T14:40:28;11.70;96.00
16732;DHT22;8484;50.904;9.192;2023-04-25T14:42:55;11.50;96.50
16732;DHT22;8484;50.904;9.192;2023-04-25T14:45:22;11.50;96.20
16732;DHT22;8484;50.904;9.192;2023-04-25T14:47:49;11.60;96.20
16732;DHT22;8484;50.904;9.192;2023-04-25T14:50:16;11.30;95.70
16732;DHT22;8484;50.904;9.192;2023-04-25T14:52:43;10.90;96.50
16732;DHT22;8484;50.904;9.192;2023-04-25T14:55:12;10.70;96.80
16732;DHT22;8484;50.904;9.192;2023-04-25T14:57:39;10.90;96.20
16732;DHT22;8484;50.904;9.192;2023-04-25T15:00:07;11.10;96.10
16732;DHT22;8484;50.904;9.192;2023-04-25T15:02:35;11.20;96.80
16732;DHT22;8484;50.904;9.192;2023-04-25T15:05:03;10.70;95.90
16732;DHT22;8484;50.904;9.192;2023-04-25T15:07:30;10.50;95.70
16732;DHT22;8484;50.904;9.192;2023-04-25T15:09:58;10.40;95.30
16732;DHT22;8484;50.904;9.192;2023-04-25T15:12:26;10.50;96.00
16732;DHT22;8484;50.904;9.192;2023-04-25T15:14:53;10.80;96.10
16732;DHT22;8484;50.904;9.192;2023-04-25T15:17:21;10.60;95.20
16732;DHT22;8484;50.904;9.192;2023-04-25T15:19:47;10.20;96.00
16732;DHT22;8484;50.904;9.192;2023-04-25T15:22:15;10.30;96.20
16732;DHT22;8484;50.904;9.192;2023-04-25T15:24:42;10.20;96.90
16732;DHT22;8484;50.904;9.192;2023-04-25T15:27:09;10.50;96.20
16732;DHT22;8484;50.904;9.192;2023-04-25T15:29:37;10.30;96.60
16732;DHT22;8484;50.904;9.192;2023-04-25T15:32:05;10.60;97.30
16732;DHT22;8484;50.904;9.192;2023-04-25T15:34:32;10.60;96.10
16732;DHT22;8484;50.904;9.192;2023-04-25T15:36:59;10.40;96.60
16732;DHT22;8484;50.904;9.192;2023-04-25T15:39:30;10.50;96.50
16732;DHT22;8484;50.904;9.192;2023-04-25T15:41:57;10.30;96.30
16732;DHT22;8484;50.904;9.192;2023-04-25T15:44:24;10.10;96.90
16732;DHT22;8484;50.904;9.192;2023-04-25T15:46:52;10.00;96.80
16732;DHT22;8484;50.904;9.192;2023-04-25T15:49:19;10.00;96.10
16732;DHT22;8484;50.904;9.192;2023-04-25T15:51:47;9.70;96.90
16732;DHT22;8484;50.904;9.192;2023-04-25T15:54:14;10.10;97.80
16732;DHT22;8484;50.904;9.192;2023-04-25T15:56:41;10.30;97.90
16732;DHT22;8484;50.904;9.192;2023-04-25T15:59:09;9.70;96.90
16732;DHT22;8484;50.904;9.192;2023-04-25T16:01:36;9.80;97.20